createdAt,value
2023-06-02T00:00:40.371Z,4.30
2023-06-02T00:03:09.779Z,4.40
2023-06-02T00:05:39.281Z,4.63
2023-06-02T00:08:08.771Z,5.07
2023-06-02T00:10:37.113Z,4.73
2023-06-02T00:13:04.978Z,4.60
2023-06-02T00:15:33.085Z,4.20
2023-06-02T00:18:01.139Z,4.23
2023-06-02T00:20:29.073Z,4.50
2023-06-02T00:22:58.413Z,4.27
2023-06-02T00:25:27.713Z,4.37
2023-06-02T00:27:55.537Z,5.13
2023-06-02T00:30:23.552Z,4.20
2023-06-02T00:32:51.562Z,4.30
2023-06-02T00:35:19.580Z,4.20
2023-06-02T00:37:47.501Z,4.40
2023-06-02T00:40:17.847Z,4.20
2023-06-02T00:42:47.037Z,4.40
2023-06-02T00:45:15.936Z,4.20
2023-06-02T00:47:43.813Z,4.30
2023-06-02T00:50:12.430Z,5.57
2023-06-02T00:52:42.912Z,4.87
2023-06-02T00:55:11.047Z,4.60
2023-06-02T00:57:41.349Z,4.43
2023-06-02T01:00:13.135Z,4.60
2023-06-02T01:02:41.759Z,5.13
2023-06-02T01:05:11.923Z,4.47
2023-06-02T01:07:40.884Z,5.53
2023-06-02T01:10:10.753Z,5.03
2023-06-02T01:12:38.570Z,4.67
2023-06-02T01:15:07.750Z,5.17
2023-06-02T01:17:38.462Z,5.37
2023-06-02T01:20:11.594Z,5.00
2023-06-02T01:22:44.646Z,5.00
2023-06-02T01:25:24.437Z,5.23
2023-06-02T01:27:53.647Z,4.80
2023-06-02T01:30:21.987Z,4.97
2023-06-02T01:32:56.560Z,4.67
2023-06-02T01:35:28.879Z,4.87
2023-06-02T01:38:01.907Z,5.10
2023-06-02T01:40:32.202Z,5.57
2023-06-02T01:43:01.644Z,4.90
2023-06-02T01:45:32.094Z,5.27
2023-06-02T01:48:06.711Z,5.63
2023-06-02T01:50:35.629Z,5.53
2023-06-02T01:53:03.573Z,5.80
2023-06-02T01:55:32.724Z,5.90
2023-06-02T01:58:01.374Z,6.70
2023-06-02T02:00:29.675Z,6.80
2023-06-02T02:03:00.056Z,5.23
2023-06-02T02:05:27.843Z,5.70
2023-06-02T02:07:56.720Z,5.27
2023-06-02T02:10:24.445Z,5.40
2023-06-02T02:12:54.659Z,5.77
2023-06-02T02:15:22.646Z,6.97
2023-06-02T02:17:50.673Z,6.97
2023-06-02T02:20:22.771Z,5.97
2023-06-02T02:22:50.666Z,6.23
2023-06-02T02:25:18.439Z,6.60
2023-06-02T02:27:46.236Z,7.60
2023-06-02T02:30:15.704Z,7.13
2023-06-02T02:32:45.544Z,8.07
2023-06-02T02:35:13.799Z,8.13
2023-06-02T02:37:47.330Z,9.13
2023-06-02T02:40:21.198Z,9.13
2023-06-02T02:42:49.464Z,7.93
2023-06-02T02:45:19.346Z,9.73
2023-06-02T02:47:48.181Z,10.20
2023-06-02T02:50:16.105Z,10.10
2023-06-02T02:52:45.758Z,9.30
2023-06-02T02:55:16.769Z,9.60
2023-06-02T02:57:44.566Z,10.13
2023-06-02T03:00:14.690Z,9.03
2023-06-02T03:02:45.650Z,8.30
2023-06-02T03:05:14.486Z,9.47
2023-06-02T03:07:45.518Z,8.90
2023-06-02T03:10:13.776Z,9.07
2023-06-02T03:12:41.597Z,8.03
2023-06-02T03:15:10.427Z,7.50
2023-06-02T03:17:39.311Z,7.33
2023-06-02T03:20:11.282Z,7.07
2023-06-02T03:22:44.298Z,9.23
2023-06-02T03:25:14.329Z,8.73
2023-06-02T03:27:42.778Z,8.07
2023-06-02T03:30:11.829Z,7.90
2023-06-02T03:32:40.032Z,6.10
2023-06-02T03:35:10.967Z,6.37
2023-06-02T03:37:41.541Z,7.13
2023-06-02T03:40:11.398Z,7.20
2023-06-02T03:42:40.472Z,7.33
2023-06-02T03:45:10.746Z,7.90
2023-06-02T03:47:42.875Z,6.77
2023-06-02T03:50:15.337Z,6.00
2023-06-02T03:52:43.132Z,6.43
2023-06-02T03:55:11.496Z,5.80
2023-06-02T03:57:40.945Z,6.70
2023-06-02T04:00:11.889Z,6.43
2023-06-02T04:02:42.420Z,7.17
2023-06-02T04:05:13.634Z,7.00
2023-06-02T04:07:46.176Z,7.60
2023-06-02T04:10:13.976Z,7.40
2023-06-02T04:12:41.941Z,6.97
2023-06-02T04:15:10.808Z,6.90
2023-06-02T04:17:38.999Z,7.27
2023-06-02T04:20:08.299Z,7.57
2023-06-02T04:22:37.458Z,7.93
2023-06-02T04:25:07.988Z,8.60
2023-06-02T04:27:36.326Z,8.13
2023-06-02T04:30:05.652Z,9.13
2023-06-02T04:32:35.622Z,8.90
2023-06-02T04:35:03.964Z,10.10
2023-06-02T04:37:33.711Z,8.47
2023-06-02T04:40:07.209Z,8.77
2023-06-02T04:42:39.312Z,8.67
2023-06-02T04:45:12.684Z,9.23
2023-06-02T04:47:42.096Z,10.37
2023-06-02T04:50:10.937Z,10.03
2023-06-02T04:52:40.551Z,11.10
2023-06-02T04:55:10.862Z,9.97
2023-06-02T04:57:42.857Z,11.33
2023-06-02T05:00:12.506Z,12.30
2023-06-02T05:02:40.473Z,12.93
2023-06-02T05:05:10.114Z,14.53
2023-06-02T05:07:38.106Z,14.33
2023-06-02T05:10:06.845Z,15.10
2023-06-02T05:12:34.667Z,15.87
2023-06-02T05:15:07.367Z,15.53
2023-06-02T05:17:35.261Z,15.20
2023-06-02T05:20:05.314Z,14.60
2023-06-02T05:22:33.228Z,13.33
2023-06-02T05:25:01.179Z,13.23
2023-06-02T05:27:29.455Z,11.57
2023-06-02T05:29:57.530Z,10.97
2023-06-02T05:32:28.833Z,9.90
2023-06-02T05:34:57.620Z,10.00
2023-06-02T05:37:25.528Z,9.77
2023-06-02T05:39:54.978Z,9.50
2023-06-02T05:42:25.214Z,9.63
2023-06-02T05:44:53.733Z,10.10
2023-06-02T05:47:21.719Z,11.37
2023-06-02T05:49:52.614Z,11.20
2023-06-02T05:52:21.593Z,11.00
2023-06-02T05:54:50.054Z,12.07
2023-06-02T05:57:18.505Z,10.40
2023-06-02T05:59:47.064Z,8.50
2023-06-02T06:02:17.570Z,8.23
2023-06-02T06:04:45.383Z,9.07
2023-06-02T06:07:14.784Z,8.70
2023-06-02T06:09:45.326Z,8.70
2023-06-02T06:12:13.294Z,9.47
2023-06-02T06:14:41.297Z,8.83
2023-06-02T06:17:09.186Z,7.83
2023-06-02T06:19:36.983Z,7.47
2023-06-02T06:22:05.017Z,7.10
2023-06-02T06:24:36.044Z,7.10
2023-06-02T06:27:04.199Z,7.33
2023-06-02T06:29:32.587Z,7.33
2023-06-02T06:32:02.160Z,8.87
2023-06-02T06:34:30.393Z,6.93
2023-06-02T06:36:59.141Z,7.17
2023-06-02T06:39:29.947Z,8.10
2023-06-02T06:41:59.189Z,7.13
2023-06-02T06:44:37.662Z,7.30
2023-06-02T06:47:07.353Z,7.00
2023-06-02T06:49:35.860Z,7.30
2023-06-02T06:52:03.658Z,7.10
2023-06-02T06:54:31.818Z,7.00
2023-06-02T06:57:00.931Z,7.00
2023-06-02T06:59:28.786Z,6.97
2023-06-02T07:01:59.087Z,7.97
2023-06-02T07:04:26.972Z,7.90
2023-06-02T07:06:55.344Z,6.90
2023-06-02T07:09:24.944Z,7.10
2023-06-02T07:11:52.737Z,6.67
2023-06-02T07:14:21.872Z,6.90
2023-06-02T07:16:53.942Z,6.80
2023-06-02T07:19:22.167Z,7.53
2023-06-02T07:21:50.152Z,7.13
2023-06-02T07:24:18.054Z,6.70
2023-06-02T07:26:46.198Z,6.70
2023-06-02T07:29:15.958Z,7.00
2023-06-02T07:31:45.662Z,6.60
2023-06-02T07:34:13.505Z,6.57
2023-06-02T07:36:41.250Z,6.50
2023-06-02T07:39:09.014Z,6.70
2023-06-02T07:41:36.792Z,6.73
2023-06-02T07:44:04.579Z,7.50
2023-06-02T07:46:32.478Z,7.50
2023-06-02T07:49:05.097Z,7.33
2023-06-02T07:51:32.877Z,7.80
2023-06-02T07:54:01.039Z,6.93
2023-06-02T07:56:28.856Z,7.40
2023-06-02T07:58:56.777Z,9.33
2023-06-02T08:01:24.709Z,7.93
2023-06-02T08:03:55.055Z,8.13
2023-06-02T08:06:26.898Z,9.07
2023-06-02T08:08:55.857Z,7.80
2023-06-02T08:11:24.577Z,7.93
2023-06-02T08:13:52.330Z,7.97
2023-06-02T08:16:28.720Z,7.90
2023-06-02T08:19:00.004Z,7.60
2023-06-02T08:21:29.257Z,8.27
2023-06-02T08:23:56.986Z,8.87
2023-06-02T08:26:25.031Z,7.70
2023-06-02T08:28:54.229Z,8.47
2023-06-02T08:31:24.026Z,7.87
2023-06-02T08:33:53.305Z,8.23
2023-06-02T08:36:21.617Z,8.30
2023-06-02T08:38:53.062Z,8.10
2023-06-02T08:41:21.630Z,7.60
2023-06-02T08:43:50.432Z,8.23
2023-06-02T08:46:18.354Z,8.30
2023-06-02T08:48:50.970Z,7.53
2023-06-02T08:51:23.467Z,7.80
2023-06-02T08:53:52.968Z,7.53
2023-06-02T08:56:20.986Z,7.93
2023-06-02T08:58:49.632Z,8.17
2023-06-02T09:01:17.625Z,9.37
2023-06-02T09:03:48.748Z,9.00
2023-06-02T09:06:23.475Z,7.77
2023-06-02T09:09:00.064Z,8.37
2023-06-02T09:11:28.588Z,7.83
2023-06-02T09:13:57.053Z,7.80
2023-06-02T09:16:25.396Z,7.63
2023-06-02T09:18:58.514Z,6.97
2023-06-02T09:21:28.352Z,8.68
2023-06-02T09:24:12.226Z,7.88
2023-06-02T09:26:50.561Z,9.20
2023-06-02T09:29:19.988Z,7.07
2023-06-02T09:31:50.495Z,6.97
2023-06-02T09:34:19.431Z,7.22
2023-06-02T09:36:49.745Z,7.85
2023-06-02T09:39:33.262Z,7.95
2023-06-02T09:42:02.737Z,7.13
2023-06-02T09:44:30.547Z,7.55
2023-06-02T09:46:58.536Z,7.85
2023-06-02T09:49:26.699Z,7.80
2023-06-02T09:51:54.736Z,7.10
2023-06-02T09:54:22.523Z,7.65
2023-06-02T09:56:51.996Z,7.13
2023-06-02T09:59:21.318Z,7.55
2023-06-02T10:01:51.485Z,7.43
2023-06-02T10:04:19.288Z,7.80
2023-06-02T10:07:07.450Z,6.75
2023-06-02T10:09:45.628Z,7.13
2023-06-02T10:12:32.040Z,6.20
2023-06-02T10:15:26.573Z,7.03
2023-06-02T10:18:06.809Z,7.97
2023-06-02T10:20:38.790Z,6.38
2023-06-02T10:23:23.698Z,6.57
2023-06-02T10:26:06.733Z,8.93
2023-06-02T10:28:35.906Z,7.75
2023-06-02T10:31:09.575Z,6.00
2023-06-02T10:33:45.424Z,6.20
2023-06-02T10:36:14.822Z,6.07
2023-06-02T10:38:42.946Z,6.10
2023-06-02T10:41:10.851Z,6.55
2023-06-02T10:43:38.612Z,5.82
2023-06-02T10:46:21.740Z,6.47
2023-06-02T10:48:51.228Z,6.88
2023-06-02T10:51:19.068Z,5.93
2023-06-02T10:54:19.333Z,6.40
2023-06-02T10:56:48.179Z,6.25
2023-06-02T10:59:37.160Z,8.20
2023-06-02T11:02:08.934Z,6.38
2023-06-02T11:04:37.575Z,6.70
2023-06-02T11:07:19.401Z,6.05
2023-06-02T11:09:50.727Z,6.10
2023-06-02T11:12:18.629Z,6.88
2023-06-02T11:15:17.427Z,7.78
2023-06-02T11:17:49.620Z,5.75
2023-06-02T11:20:18.480Z,6.25
2023-06-02T11:22:47.477Z,6.82
2023-06-02T11:25:18.441Z,6.22
2023-06-02T11:27:48.419Z,5.93
2023-06-02T11:30:18.945Z,5.80
2023-06-02T11:32:50.337Z,5.95
2023-06-02T11:35:21.598Z,5.82
2023-06-02T11:38:03.698Z,6.93
2023-06-02T11:40:31.706Z,8.25
2023-06-02T11:42:59.815Z,6.60
2023-06-02T11:45:28.898Z,7.03
2023-06-02T11:48:03.360Z,5.93
2023-06-02T11:50:31.644Z,7.00
2023-06-02T11:52:59.982Z,6.93
2023-06-02T11:55:29.402Z,7.28
2023-06-02T11:58:23.653Z,7.20
2023-06-02T12:00:52.651Z,6.20
2023-06-02T12:03:28.015Z,6.80
2023-06-02T12:05:56.630Z,6.80
2023-06-02T12:08:27.782Z,6.20
2023-06-02T12:10:59.052Z,6.40
2023-06-02T12:13:28.812Z,7.57
2023-06-02T12:15:57.625Z,6.43
2023-06-02T12:18:30.859Z,7.18
2023-06-02T12:21:00.449Z,6.47
2023-06-02T12:23:43.466Z,5.85
2023-06-02T12:26:11.343Z,5.45
2023-06-02T12:28:40.515Z,5.22
2023-06-02T12:31:08.532Z,6.18
2023-06-02T12:33:41.281Z,5.90
2023-06-02T12:36:11.175Z,6.18
2023-06-02T12:38:39.277Z,5.55
2023-06-02T12:41:12.521Z,5.72
2023-06-02T12:43:41.052Z,7.82
2023-06-02T12:46:09.352Z,6.00
2023-06-02T12:48:39.709Z,5.47
2023-06-02T12:51:09.074Z,5.53
2023-06-02T12:53:39.240Z,5.45
2023-06-02T12:56:07.856Z,5.38
2023-06-02T12:58:36.094Z,5.05
2023-06-02T13:01:04.664Z,5.50
2023-06-02T13:03:35.018Z,5.05
2023-06-02T13:06:06.660Z,5.25
2023-06-02T13:08:35.611Z,5.18
2023-06-02T13:11:03.353Z,5.13
2023-06-02T13:13:31.143Z,5.63
2023-06-02T13:15:59.331Z,5.43
2023-06-02T13:18:27.165Z,5.60
2023-06-02T13:20:55.941Z,5.25
2023-06-02T13:23:25.549Z,4.95
2023-06-02T13:25:53.565Z,5.30
2023-06-02T13:28:21.637Z,5.05
2023-06-02T13:30:49.543Z,5.03
2023-06-02T13:33:17.288Z,5.03
2023-06-02T13:35:53.963Z,5.38
2023-06-02T13:38:21.731Z,5.45
2023-06-02T13:40:51.649Z,5.60
2023-06-02T13:43:19.556Z,4.63
2023-06-02T13:45:48.188Z,5.38
2023-06-02T13:48:17.664Z,5.80
2023-06-02T13:50:45.472Z,5.10
2023-06-02T13:53:13.326Z,5.40
2023-06-02T13:55:41.146Z,5.65
2023-06-02T13:58:10.269Z,5.05
2023-06-02T14:00:38.219Z,4.88
2023-06-02T14:03:06.147Z,4.95
2023-06-02T14:05:33.919Z,4.80
2023-06-02T14:08:02.839Z,5.13
2023-06-02T14:10:30.650Z,4.72
2023-06-02T14:12:58.409Z,7.75
2023-06-02T14:15:27.714Z,4.93
2023-06-02T14:17:55.518Z,6.18
2023-06-02T14:20:24.397Z,5.43
2023-06-02T14:22:52.278Z,5.07
2023-06-02T14:25:20.068Z,5.55
2023-06-02T14:27:47.917Z,5.43
2023-06-02T14:30:16.070Z,5.28
2023-06-02T14:32:45.222Z,5.45
2023-06-02T14:35:12.985Z,4.70
2023-06-02T14:37:40.819Z,5.35
2023-06-02T14:40:09.724Z,6.25
2023-06-02T14:42:37.712Z,5.13
2023-06-02T14:45:06.235Z,5.50
2023-06-02T14:47:34.543Z,5.47
2023-06-02T14:50:04.308Z,5.38
2023-06-02T14:52:32.104Z,6.35
2023-06-02T14:54:59.933Z,5.15
2023-06-02T14:57:29.049Z,5.97
2023-06-02T14:59:56.829Z,5.15
2023-06-02T15:02:24.645Z,5.53
2023-06-02T15:04:53.127Z,5.70
2023-06-02T15:07:22.651Z,5.35
2023-06-02T15:09:50.488Z,5.90
2023-06-02T15:12:18.896Z,5.80
2023-06-02T15:14:47.715Z,5.45
2023-06-02T15:17:15.920Z,5.57
2023-06-02T15:19:44.215Z,5.38
2023-06-02T15:22:12.263Z,5.15
2023-06-02T15:24:41.661Z,5.63
2023-06-02T15:27:09.776Z,5.50
2023-06-02T15:29:37.549Z,5.45
2023-06-02T15:32:06.036Z,6.25
2023-06-02T15:34:33.918Z,5.35
2023-06-02T15:37:01.661Z,5.53
2023-06-02T15:39:29.413Z,5.30
2023-06-02T15:41:58.599Z,5.28
2023-06-02T15:44:28.767Z,5.20
2023-06-02T15:46:56.705Z,5.20
2023-06-02T15:49:26.557Z,5.07
2023-06-02T15:51:54.605Z,5.43
2023-06-02T15:54:22.702Z,5.00
2023-06-02T15:56:53.398Z,5.03
2023-06-02T15:59:22.908Z,5.00
2023-06-02T16:01:51.941Z,5.50
2023-06-02T16:04:19.933Z,5.13
2023-06-02T16:06:47.785Z,4.97
2023-06-02T16:09:17.679Z,5.43
2023-06-02T16:11:45.437Z,7.20
2023-06-02T16:14:13.750Z,5.30
2023-06-02T16:16:43.004Z,4.70
2023-06-02T16:19:10.895Z,5.63
2023-06-02T16:21:39.393Z,5.50
2023-06-02T16:24:07.266Z,4.75
2023-06-02T16:26:36.321Z,4.95
2023-06-02T16:29:04.182Z,5.00
2023-06-02T16:31:32.130Z,5.10
2023-06-02T16:34:01.237Z,6.43
2023-06-02T16:36:29.062Z,6.65
2023-06-02T16:38:56.842Z,5.47
2023-06-02T16:41:24.878Z,5.13
2023-06-02T16:43:52.656Z,4.82
2023-06-02T16:46:21.497Z,4.95
2023-06-02T16:48:49.655Z,5.03
2023-06-02T16:51:18.824Z,4.55
2023-06-02T16:53:46.621Z,4.70
2023-06-02T16:56:14.412Z,5.22
2023-06-02T16:58:42.259Z,5.15
2023-06-02T17:01:10.063Z,4.90
2023-06-02T17:03:39.960Z,5.03
2023-06-02T17:06:08.362Z,5.07
2023-06-02T17:08:37.493Z,5.07
2023-06-02T17:11:05.579Z,5.25
2023-06-02T17:13:34.143Z,5.30
2023-06-02T17:16:02.159Z,4.75
2023-06-02T17:18:30.035Z,6.43
2023-06-02T17:20:57.772Z,4.80
2023-06-02T17:23:25.490Z,4.65
2023-06-02T17:25:54.631Z,6.00
2023-06-02T17:28:22.383Z,5.22
2023-06-02T17:30:51.640Z,4.93
2023-06-02T17:33:20.464Z,5.57
2023-06-02T17:35:48.635Z,5.07
2023-06-02T17:38:16.732Z,8.48
2023-06-02T17:40:45.364Z,5.28
2023-06-02T17:43:14.522Z,5.45
2023-06-02T17:45:42.284Z,5.15
2023-06-02T17:48:10.069Z,6.20
2023-06-02T17:50:37.890Z,4.88
2023-06-02T17:53:05.653Z,5.20
2023-06-02T17:55:33.588Z,6.60
2023-06-02T17:58:03.855Z,6.18
2023-06-02T18:00:33.019Z,5.03
2023-06-02T18:03:01.459Z,5.78
2023-06-02T18:05:29.593Z,4.80
2023-06-02T18:07:58.099Z,5.05
2023-06-02T18:10:27.987Z,5.97
2023-06-02T18:12:59.226Z,4.72
2023-06-02T18:15:27.446Z,5.30
2023-06-02T18:17:56.757Z,5.45
2023-06-02T18:20:24.601Z,6.10
2023-06-02T18:22:53.157Z,8.40
2023-06-02T18:25:21.042Z,4.60
2023-06-02T18:27:48.789Z,4.80
2023-06-02T18:30:16.547Z,5.25
2023-06-02T18:32:44.363Z,6.47
2023-06-02T18:35:13.527Z,5.20
2023-06-02T18:37:41.310Z,5.33
2023-06-02T18:40:10.379Z,4.67
2023-06-02T18:42:38.710Z,5.20
2023-06-02T18:45:07.385Z,4.43
2023-06-02T18:47:35.201Z,4.53
2023-06-02T18:50:04.190Z,5.23
2023-06-02T18:52:35.371Z,4.33
2023-06-02T18:55:03.397Z,4.60
2023-06-02T18:57:31.218Z,4.57
2023-06-02T18:59:59.127Z,4.93
2023-06-02T19:02:27.161Z,7.23
2023-06-02T19:04:54.948Z,4.50
2023-06-02T19:07:23.093Z,4.43
2023-06-02T19:09:52.248Z,5.80
2023-06-02T19:12:20.084Z,4.87
2023-06-02T19:14:47.813Z,5.67
2023-06-02T19:17:15.807Z,4.83
2023-06-02T19:19:43.564Z,4.50
2023-06-02T19:22:12.340Z,4.27
2023-06-02T19:24:40.935Z,4.27
2023-06-02T19:27:10.252Z,4.80
2023-06-02T19:29:38.095Z,4.97
2023-06-02T19:32:06.940Z,5.27
2023-06-02T19:34:34.755Z,4.70
2023-06-02T19:37:02.491Z,4.70
2023-06-02T19:42:18.390Z,6.67
2023-06-02T19:44:48.464Z,4.30
2023-06-02T19:47:16.409Z,4.87
2023-06-02T19:49:44.510Z,4.63
2023-06-02T19:52:12.366Z,4.60
2023-06-02T19:54:41.697Z,4.43
2023-06-02T19:57:09.472Z,5.00
2023-06-02T19:59:38.716Z,4.87
2023-06-02T20:02:10.114Z,4.37
2023-06-02T20:04:40.902Z,4.87
2023-06-02T20:07:11.742Z,5.53
2023-06-02T20:09:42.477Z,5.20
2023-06-02T20:12:10.265Z,4.57
2023-06-02T20:14:40.635Z,4.90
2023-06-02T20:17:08.500Z,4.57
2023-06-02T20:19:36.478Z,4.90
2023-06-02T20:22:06.503Z,5.37
2023-06-02T20:24:34.196Z,4.43
2023-06-02T20:27:05.315Z,4.67
2023-06-02T20:29:35.348Z,4.70
2023-06-02T20:32:04.855Z,5.30
2023-06-02T20:34:32.797Z,4.73
2023-06-02T20:37:00.690Z,4.77
2023-06-02T20:39:30.624Z,5.87
2023-06-02T20:41:58.386Z,5.27
2023-06-02T20:44:26.535Z,5.17
2023-06-02T20:46:54.288Z,5.40
2023-06-02T20:49:23.483Z,4.60
2023-06-02T20:51:51.396Z,5.10
2023-06-02T20:54:21.162Z,7.20
2023-06-02T20:56:49.041Z,4.60
2023-06-02T21:00:06.560Z,5.60
2023-06-02T21:02:34.538Z,4.73
2023-06-02T21:05:03.812Z,4.60
2023-06-02T21:07:31.558Z,6.57
2023-06-02T21:09:59.325Z,5.03
2023-06-02T21:12:27.052Z,5.50
2023-06-02T21:14:54.813Z,4.77
2023-06-02T21:17:22.581Z,6.93
2023-06-02T21:19:50.646Z,6.70
2023-06-02T21:22:19.727Z,5.33
2023-06-02T21:24:47.494Z,5.40
2023-06-02T21:27:16.010Z,5.40
2023-06-02T21:29:44.108Z,5.33
2023-06-02T21:32:11.925Z,6.43
2023-06-02T21:34:39.794Z,5.30
2023-06-02T21:37:08.785Z,5.23
2023-06-02T21:39:37.867Z,7.00
2023-06-02T21:42:06.232Z,6.50
2023-06-02T21:44:33.990Z,8.27
2023-06-02T21:47:01.918Z,5.30
2023-06-02T21:49:29.646Z,8.60
2023-06-02T21:51:57.408Z,6.43
2023-06-02T21:54:25.192Z,5.33
2023-06-02T21:56:54.304Z,5.80
2023-06-02T21:59:22.072Z,6.93
2023-06-02T22:01:49.838Z,6.00
2023-06-02T22:04:17.662Z,5.60
2023-06-02T22:06:45.769Z,5.27
2023-06-02T22:09:13.546Z,5.97
2023-06-02T22:11:41.312Z,5.93
2023-06-02T22:14:10.473Z,6.10
2023-06-02T22:16:38.362Z,7.10
2023-06-02T22:19:07.563Z,6.63
2023-06-02T22:21:55.069Z,6.70
2023-06-02T22:24:27.695Z,6.90
2023-06-02T22:26:56.090Z,6.37
2023-06-02T22:29:25.285Z,6.13
2023-06-02T22:31:53.456Z,6.17
2023-06-02T22:34:21.300Z,5.80
2023-06-02T22:36:49.131Z,6.40
2023-06-02T22:39:16.958Z,7.23
2023-06-02T22:41:45.161Z,7.53
2023-06-02T22:44:12.924Z,6.17
2023-06-02T22:46:42.058Z,7.37
2023-06-02T22:49:09.781Z,6.27
2023-06-02T22:51:39.380Z,8.17
2023-06-02T22:54:07.213Z,8.60
2023-06-02T22:56:34.997Z,8.53
2023-06-02T22:59:02.931Z,8.30
2023-06-02T23:01:30.799Z,6.90
2023-06-02T23:04:00.013Z,5.93
2023-06-02T23:06:27.856Z,6.80
2023-06-02T23:08:55.607Z,7.53
2023-06-02T23:11:23.592Z,6.50
2023-06-02T23:13:51.342Z,6.57
2023-06-02T23:16:19.098Z,8.37
2023-06-02T23:18:46.857Z,9.10
2023-06-02T23:21:16.641Z,6.70
2023-06-02T23:23:44.501Z,8.63
2023-06-02T23:26:15.323Z,7.03
2023-06-02T23:28:44.993Z,7.33
2023-06-02T23:31:12.809Z,7.13
2023-06-02T23:33:40.634Z,7.07
2023-06-02T23:36:09.003Z,7.57
2023-06-02T23:38:38.131Z,8.03
2023-06-02T23:41:06.302Z,7.10
2023-06-02T23:43:34.286Z,7.00
2023-06-02T23:46:02.075Z,7.30
2023-06-02T23:48:29.871Z,6.67
2023-06-02T23:50:57.727Z,7.50
2023-06-02T23:53:25.512Z,6.77
2023-06-02T23:55:54.665Z,6.70
2023-06-02T23:58:22.474Z,7.13
